Time;durP1;ratioP1;P1;durP2;ratioP2;P2;SDS_P1;SDS_P2;PMS_P1;PMS_P2;Temp;Humidity;BMP_temperature;BMP_pressure;BME280_temperature;BME280_humidity;BME280_pressure;Samples;Min_cycle;Max_cycle;Signal;HPM_P1;HPM_P2
2022/11/21 00:01:29;;;;;;;90.50;79.50;;;;;;;0.15;93.50;97100.14;105084;1326;22094;-86
2022/11/21 00:03:57;;;;;;;85.50;76.40;;;;;;;0.13;93.61;97103.36;105357;1317;22732;-84
2022/11/21 00:06:25;;;;;;;87.00;78.30;;;;;;;0.13;93.89;97102.14;105067;1326;22911;-84
2022/11/21 00:08:55;;;;;;;81.50;73.20;;;;;;;0.19;93.64;97103.36;105537;1309;22203;-84
2022/11/21 00:11:23;;;;;;;84.30;76.10;;;;;;;0.25;94.19;97097.36;105337;1315;22242;-82
2022/11/21 00:13:51;;;;;;;82.50;74.50;;;;;;;0.30;94.03;97092.77;105064;1325;22912;-87
2022/11/21 00:16:19;;;;;;;79.60;71.70;;;;;;;0.34;93.56;97093.79;105556;1309;22884;-88
2022/11/21 00:18:47;;;;;;;76.10;69.00;;;;;;;0.35;93.88;97090.36;104928;1327;22894;-86
2022/11/21 00:21:17;;;;;;;78.10;70.60;;;;;;;0.32;94.44;97085.14;104802;1330;22264;-85
2022/11/21 00:23:46;;;;;;;78.90;70.20;;;;;;;0.24;94.37;97082.58;105090;1326;22190;-84
2022/11/21 00:26:15;;;;;;;74.20;66.90;;;;;;;0.18;94.51;97085.86;105348;1323;22168;-85
2022/11/21 00:28:44;;;;;;;67.90;61.50;;;;;;;0.15;94.63;97076.99;105525;1318;22078;-86
2022/11/21 00:31:20;;;;;;;66.60;60.40;;;;;;;0.15;95.02;97073.51;105053;1327;22104;-85
2022/11/21 00:33:48;;;;;;;64.10;58.30;;;;;;;0.13;95.03;97066.73;104843;1327;22950;-85
2022/11/21 00:36:16;;;;;;;61.10;55.30;;;;;;;0.10;94.85;97061.57;105310;1319;22186;-85
2022/11/21 00:38:45;;;;;;;58.00;52.40;;;;;;;0.09;95.03;97054.67;104917;1317;22242;-86
2022/11/21 00:41:13;;;;;;;54.10;49.00;;;;;;;0.09;95.11;97050.59;104936;1319;22721;-85
2022/11/21 00:43:40;;;;;;;53.80;48.90;;;;;;;0.09;95.12;97048.42;104939;1330;22248;-85
2022/11/21 00:46:08;;;;;;;55.10;50.10;;;;;;;0.09;95.19;97047.43;105515;1319;22197;-86
2022/11/21 00:48:37;;;;;;;52.70;48.00;;;;;;;0.03;94.93;97044.63;105570;1309;22230;-86
2022/11/21 00:51:05;;;;;;;52.40;47.60;;;;;;;0.00;94.83;97049.00;104504;1330;22241;-86
2022/11/21 00:53:33;;;;;;;51.60;46.80;;;;;;;-0.03;94.61;97048.39;104882;1327;22243;-89
2022/11/21 00:56:01;;;;;;;48.10;43.60;;;;;;;-0.03;94.71;97043.40;105322;1308;23019;-86
2022/11/21 00:58:29;;;;;;;46.80;42.30;;;;;;;-0.02;94.94;97037.11;104960;1327;22172;-88
2022/11/21 01:01:09;;;;;;;48.40;43.90;;;;;;;-0.03;95.01;97032.96;104911;1328;22205;-91
2022/11/21 01:03:39;;;;;;;48.20;43.60;;;;;;;-0.10;95.11;97024.65;104830;1330;22181;-88
2022/11/21 01:06:14;;;;;;;47.50;43.00;;;;;;;-0.13;95.15;97019.38;104869;1326;22248;-86
2022/11/21 01:08:43;;;;;;;47.00;42.80;;;;;;;-0.15;95.08;97014.75;105063;1326;22098;-89
2022/11/21 01:11:17;;;;;;;49.60;45.00;;;;;;;-0.16;95.35;97011.94;105153;1323;22125;-87
2022/11/21 01:13:45;;;;;;;47.20;42.80;;;;;;;-0.23;95.23;97016.75;105149;1326;22925;-89
2022/11/21 01:16:21;;;;;;;46.10;41.80;;;;;;;-0.27;95.26;97018.88;104958;1328;22915;-91
2022/11/21 01:18:50;;;;;;;44.30;40.20;;;;;;;-0.27;95.17;97023.70;105579;1318;22086;-86
2022/11/21 01:21:23;;;;;;;46.70;42.40;;;;;;;-0.28;95.13;97027.29;104864;1328;22263;-87
2022/11/21 01:23:52;;;;;;;45.50;41.10;;;;;;;-0.31;95.02;97027.14;105118;1323;22771;-87
2022/11/21 01:26:23;;;;;;;46.50;42.10;;;;;;;-0.34;94.91;97024.58;105012;1309;22156;-86
2022/11/21 01:28:51;;;;;;;43.80;39.70;;;;;;;-0.34;94.80;97020.88;105200;1321;22264;-86
2022/11/21 01:31:25;;;;;;;43.90;39.90;;;;;;;-0.37;94.98;97014.34;104943;1327;22195;-87
2022/11/21 01:33:53;;;;;;;43.70;39.80;;;;;;;-0.39;94.89;97014.05;105329;1319;22763;-87
2022/11/21 01:36:23;;;;;;;43.50;39.50;;;;;;;-0.42;94.88;97015.50;105289;1318;22249;-86
2022/11/21 01:38:54;;;;;;;41.40;37.60;;;;;;;-0.46;94.84;97020.12;104889;1325;22192;-87
2022/11/21 01:41:30;;;;;;;41.70;37.90;;;;;;;-0.49;94.66;97015.70;104887;1330;22346;-89
2022/11/21 01:44:08;;;;;;;42.30;38.50;;;;;;;-0.49;94.47;97019.78;104868;1326;22357;-89
2022/11/21 01:46:36;;;;;;;43.30;39.20;;;;;;;-0.48;94.22;97015.87;105469;1319;22863;-87
2022/11/21 01:49:09;;;;;;;44.20;40.20;;;;;;;-0.48;94.50;97015.66;105057;1326;22101;-88
2022/11/21 01:51:55;;;;;;;42.90;39.20;;;;;;;-0.51;94.35;97015.47;105029;1326;22720;-89
2022/11/21 01:54:32;;;;;;;44.90;40.80;;;;;;;-0.58;94.39;97014.08;105480;1310;22117;-87
2022/11/21 01:57:05;;;;;;;47.10;42.90;;;;;;;-0.63;94.34;97020.35;105307;1319;22242;-84
2022/11/21 01:59:43;;;;;;;48.20;43.80;;;;;;;-0.67;94.18;97018.05;104898;1326;22204;-85
2022/11/21 02:02:14;;;;;;;45.50;41.30;;;;;;;-0.66;94.00;97020.96;105188;1320;22175;-88
2022/11/21 02:04:43;;;;;;;49.20;44.60;;;;;;;-0.67;93.85;97024.19;104757;1327;22192;-88
2022/11/21 02:07:13;;;;;;;47.40;43.20;;;;;;;-0.70;93.81;97026.73;104698;1327;22182;-86
2022/11/21 02:09:45;;;;;;;52.80;47.80;;;;;;;-0.76;93.73;97029.63;105331;1320;22223;-87
2022/11/21 02:12:37;;;;;;;54.20;49.50;;;;;;;-0.86;93.39;97029.05;104945;1327;22116;-86
2022/11/21 02:15:06;;;;;;;53.30;48.40;;;;;;;-0.96;93.71;97032.42;105447;1320;22211;-85
2022/11/21 02:17:34;;;;;;;50.10;45.40;;;;;;;-1.03;93.62;97031.73;105353;1319;22138;-86
2022/11/21 02:20:05;;;;;;;48.10;43.70;;;;;;;-1.14;93.14;97027.84;105414;1320;22197;-87
2022/11/21 02:22:50;;;;;;;47.50;43.20;;;;;;;-1.21;93.43;97027.77;104876;1327;22190;-86
2022/11/21 02:25:21;;;;;;;46.70;42.20;;;;;;;-1.27;93.27;97029.48;104892;1319;22910;-87
2022/11/21 02:27:54;;;;;;;45.90;41.80;;;;;;;-1.41;93.11;97024.31;105158;1320;22103;-85
2022/11/21 02:30:22;;;;;;;52.40;47.60;;;;;;;-1.50;93.18;97020.65;105162;1320;22190;-87
2022/11/21 02:32:50;;;;;;;45.50;41.00;;;;;;;-1.55;93.28;97023.44;105382;1312;22947;-87
2022/11/21 02:35:18;;;;;;;56.10;51.10;;;;;;;-1.62;93.25;97019.58;104907;1327;22185;-88
2022/11/21 02:37:57;;;;;;;57.20;52.10;;;;;;;-1.69;93.48;97013.52;104873;1327;22224;-87
2022/11/21 02:40:31;;;;;;;58.70;53.20;;;;;;;-1.74;93.50;97013.48;105226;1320;22234;-86
2022/11/21 02:43:09;;;;;;;64.70;58.30;;;;;;;-1.79;93.31;97014.78;104845;1328;22190;-88
2022/11/21 02:45:41;;;;;;;66.50;60.10;;;;;;;-1.81;93.23;97014.59;104926;1327;22881;-88
2022/11/21 02:48:09;;;;;;;69.70;62.90;;;;;;;-1.83;93.18;97011.66;104928;1319;22173;-87
2022/11/21 02:50:40;;;;;;;71.60;64.80;;;;;;;-1.85;93.15;97011.64;105311;1320;22057;-88
2022/11/21 02:53:12;;;;;;;71.90;65.20;;;;;;;-1.90;93.26;97005.17;104899;1326;22682;-87
2022/11/21 02:55:41;;;;;;;60.90;55.10;;;;;;;-1.97;93.05;97012.26;105113;1320;22117;-85
2022/11/21 02:58:09;;;;;;;71.00;64.20;;;;;;;-2.05;93.09;97012.80;104883;1327;22137;-87
2022/11/21 03:00:39;;;;;;;64.00;57.80;;;;;;;-2.12;93.00;97011.46;104749;1327;22747;-87
2022/11/21 03:03:08;;;;;;;57.00;51.70;;;;;;;-2.15;93.16;97011.72;104800;1327;22203;-87
2022/11/21 03:05:37;;;;;;;55.00;49.80;;;;;;;-2.17;93.01;97015.81;105012;1327;22239;-85
2022/11/21 03:08:06;;;;;;;58.80;53.50;;;;;;;-2.17;93.31;97012.49;105070;1327;22195;-86
2022/11/21 03:10:35;;;;;;;67.40;58.30;;;;;;;-2.18;93.14;97010.27;105014;1320;22164;-87
2022/11/21 03:13:03;;;;;;;66.00;60.00;;;;;;;-2.19;93.19;97009.23;105010;1327;22148;-88
2022/11/21 03:15:33;;;;;;;61.50;55.90;;;;;;;-2.19;93.35;97006.49;105280;1318;22202;-84
2022/11/21 03:18:01;;;;;;;56.30;51.20;;;;;;;-2.25;93.20;97000.36;104910;1325;22268;-87
2022/11/21 03:20:31;;;;;;;53.60;48.20;;;;;;;-2.28;92.95;96999.80;105009;1320;22244;-85
2022/11/21 03:23:00;;;;;;;53.80;48.50;;;;;;;-2.40;92.74;97000.82;104902;1327;22742;-87
2022/11/21 03:25:29;;;;;;;61.20;55.60;;;;;;;-2.53;92.76;96999.58;104777;1327;22202;-88
2022/11/21 03:27:57;;;;;;;56.90;51.50;;;;;;;-2.63;92.91;96993.07;104739;1326;22281;-88
2022/11/21 03:30:26;;;;;;;61.00;55.30;;;;;;;-2.71;92.72;96993.35;104972;1317;22213;-85
2022/11/21 03:32:55;;;;;;;66.40;60.40;;;;;;;-2.84;92.88;96995.85;104831;1328;22133;-87
2022/11/21 03:35:24;;;;;;;62.60;56.70;;;;;;;-2.87;93.22;96994.42;104731;1322;22146;-87
2022/11/21 03:37:52;;;;;;;60.90;54.90;;;;;;;-2.89;93.14;96991.02;105340;1320;22093;-87
2022/11/21 03:40:20;;;;;;;60.40;54.30;;;;;;;-2.87;93.16;96991.05;104812;1327;22266;-85
2022/11/21 03:42:48;;;;;;;62.20;56.00;;;;;;;-2.83;93.23;96981.05;105225;1320;22171;-87
2022/11/21 03:45:16;;;;;;;62.60;56.80;;;;;;;-2.78;93.27;96978.81;104928;1327;22213;-87
2022/11/21 03:47:44;;;;;;;46.00;41.90;;;;;;;-2.76;93.38;96971.39;105328;1305;22159;-88
2022/11/21 03:50:16;;;;;;;63.40;57.40;;;;;;;-2.77;93.13;96974.33;104900;1327;22919;-87
2022/11/21 03:52:44;;;;;;;60.20;54.30;;;;;;;-2.82;92.88;96973.70;104845;1327;22280;-87
2022/11/21 03:55:12;;;;;;;61.90;56.00;;;;;;;-2.91;92.65;96971.56;104874;1319;22182;-88
2022/11/21 03:57:39;;;;;;;61.70;56.00;;;;;;;-2.94;92.53;96967.24;105348;1319;22200;-87
2022/11/21 04:00:08;;;;;;;66.40;60.00;;;;;;;-2.90;93.10;96966.37;105284;1320;22059;-88
2022/11/21 04:02:36;;;;;;;67.60;61.20;;;;;;;-2.86;93.10;96959.39;104888;1327;22177;-86
2022/11/21 04:05:04;;;;;;;62.90;56.60;;;;;;;-2.88;93.02;96954.59;104874;1327;22334;-86
2022/11/21 04:07:32;;;;;;;64.30;57.70;;;;;;;-3.03;92.85;96950.27;104926;1323;22135;-85
2022/11/21 04:10:00;;;;;;;60.70;54.40;;;;;;;-3.21;92.80;96949.43;104926;1327;22229;-83
2022/11/21 04:12:28;;;;;;;64.20;57.50;;;;;;;-3.35;92.44;96944.67;104871;1325;22221;-86
2022/11/21 04:14:56;;;;;;;65.40;58.90;;;;;;;-3.38;92.72;96942.92;105345;1319;22243;-85
2022/11/21 04:17:24;;;;;;;69.20;62.60;;;;;;;-3.40;92.88;96940.90;104785;1327;22224;-85
2022/11/21 04:19:52;;;;;;;72.40;65.00;;;;;;;-3.50;93.14;96936.54;104905;1326;22355;-86
2022/11/21 04:22:20;;;;;;;66.00;59.20;;;;;;;-3.57;93.12;96932.71;104835;1327;23089;-85
2022/11/21 04:24:48;;;;;;;75.60;67.70;;;;;;;-3.57;93.00;96935.75;104912;1327;22837;-85
2022/11/21 04:27:15;;;;;;;74.00;66.50;;;;;;;-3.59;93.00;96941.91;105358;1319;22177;-84
2022/11/21 04:29:43;;;;;;;72.50;64.30;;;;;;;-3.54;93.05;96939.70;105304;1318;22611;-86
2022/11/21 04:32:11;;;;;;;79.70;71.60;;;;;;;-3.50;93.28;96939.95;104901;1327;22244;-86
2022/11/21 04:34:40;;;;;;;82.10;74.00;;;;;;;-3.47;93.46;96937.98;104866;1327;22155;-86
2022/11/21 04:37:08;;;;;;;87.90;79.40;;;;;;;-3.45;93.20;96941.10;104923;1327;22246;-86
2022/11/21 04:39:38;;;;;;;88.80;76.50;;;;;;;-3.45;93.11;96940.05;104910;1327;22187;-87
2022/11/21 04:42:06;;;;;;;88.30;79.10;;;;;;;-3.43;93.23;96936.52;104959;1314;22609;-85
2022/11/21 04:44:34;;;;;;;100.80;84.70;;;;;;;-3.43;92.94;96928.66;104858;1327;22102;-86
2022/11/21 04:47:02;;;;;;;95.60;85.30;;;;;;;-3.38;92.90;96935.10;105282;1305;22076;-87
2022/11/21 04:49:32;;;;;;;100.40;88.80;;;;;;;-3.40;92.72;96935.86;105338;1309;22926;-87
2022/11/21 04:52:00;;;;;;;95.30;83.60;;;;;;;-3.42;92.82;96937.33;104912;1327;22222;-87
2022/11/21 04:54:28;;;;;;;98.70;87.60;;;;;;;-3.47;93.01;96936.97;105261;1312;22894;-88
2022/11/21 04:56:57;;;;;;;113.30;89.20;;;;;;;-3.50;92.88;96931.79;104918;1322;22223;-87
2022/11/21 04:59:25;;;;;;;105.90;83.60;;;;;;;-3.55;93.08;96932.02;104752;1327;22958;-87
2022/11/21 05:01:52;;;;;;;91.90;80.70;;;;;;;-3.55;93.16;96930.96;105345;1319;22080;-87
2022/11/21 05:04:20;;;;;;;82.90;74.40;;;;;;;-3.50;93.07;96940.60;105343;1320;22184;-85
2022/11/21 05:06:49;;;;;;;87.50;78.20;;;;;;;-3.48;93.10;96935.64;104731;1327;22880;-87
2022/11/21 05:09:16;;;;;;;80.10;71.40;;;;;;;-3.43;93.20;96922.77;104824;1322;22124;-88
2022/11/21 05:14:31;;;;;;;84.10;69.60;;;;;;;-3.42;93.45;96923.73;104814;1327;22261;-88
2022/11/21 05:16:59;;;;;;;77.60;69.60;;;;;;;-3.38;93.75;96918.48;104762;1322;22145;-88
2022/11/21 05:19:27;;;;;;;74.00;66.50;;;;;;;-3.32;93.69;96917.93;105325;1318;22259;-87
2022/11/21 05:21:55;;;;;;;71.30;64.30;;;;;;;-3.23;93.68;96913.51;105315;1320;22217;-88
2022/11/21 05:24:23;;;;;;;70.40;63.30;;;;;;;-3.14;93.73;96910.52;105317;1319;22115;-89
2022/11/21 05:26:51;;;;;;;69.50;60.80;;;;;;;-3.04;93.85;96902.54;105376;1319;22260;-88
2022/11/21 05:29:19;;;;;;;73.10;63.80;;;;;;;-2.96;93.79;96895.95;105112;1323;22265;-87
2022/11/21 05:31:54;;;;;;;76.10;68.90;;;;;;;-2.87;94.21;96894.50;105266;1311;22119;-88
2022/11/21 05:34:22;;;;;;;77.70;70.20;;;;;;;-2.80;94.20;96901.34;104905;1327;22746;-88
2022/11/21 05:36:59;;;;;;;81.90;72.30;;;;;;;-2.72;94.26;96903.61;104891;1327;22189;-85
2022/11/21 05:39:27;;;;;;;84.40;69.00;;;;;;;-2.71;94.66;96896.00;104830;1327;22105;-85
2022/11/21 05:41:55;;;;;;;111.00;68.20;;;;;;;-2.68;94.53;96893.25;105027;1326;22184;-85
2022/11/21 05:44:29;;;;;;;73.40;65.80;;;;;;;-2.66;94.64;96891.33;104822;1322;22252;-87
2022/11/21 05:46:58;;;;;;;83.30;68.40;;;;;;;-2.64;94.69;96889.89;104938;1327;22171;-86
2022/11/21 05:49:26;;;;;;;88.50;68.40;;;;;;;-2.63;94.72;96889.38;104802;1327;22254;-86
2022/11/21 05:51:54;;;;;;;113.80;73.40;;;;;;;-2.62;95.25;96883.55;105342;1315;22248;-86
2022/11/21 05:54:21;;;;;;;114.90;73.60;;;;;;;-2.64;95.26;96882.66;105347;1319;22856;-85
2022/11/21 05:56:49;;;;;;;100.60;68.10;;;;;;;-2.66;95.26;96877.14;104905;1326;22697;-85
2022/11/21 05:59:17;;;;;;;97.30;68.30;;;;;;;-2.66;95.34;96880.95;104895;1327;22176;-85
2022/11/21 06:04:32;;;;;;;77.80;70.50;;;;;;;-2.54;95.16;96867.11;105177;1319;22181;-88
2022/11/21 06:07:00;;;;;;;78.60;70.80;;;;;;;-2.48;95.16;96869.45;104922;1327;23111;-83
2022/11/21 06:09:28;;;;;;;86.20;75.20;;;;;;;-2.46;95.30;96869.55;105320;1318;23010;-86
2022/11/21 06:11:55;;;;;;;89.70;72.40;;;;;;;-2.44;95.72;96867.64;105350;1319;22276;-85
2022/11/21 06:14:23;;;;;;;93.40;68.70;;;;;;;-2.43;95.82;96863.48;104847;1327;22241;-86
2022/11/21 06:16:51;;;;;;;102.90;71.70;;;;;;;-2.39;95.65;96861.95;104855;1327;22200;-84
2022/11/21 06:19:19;;;;;;;71.90;64.80;;;;;;;-2.35;95.87;96862.08;104928;1327;22097;-86
2022/11/21 06:21:47;;;;;;;99.90;69.70;;;;;;;-2.30;96.27;96861.36;104755;1327;22258;-86
2022/11/21 06:24:15;;;;;;;120.60;75.70;;;;;;;-2.26;96.23;96860.94;105144;1321;22169;-86
2022/11/21 06:26:48;;;;;;;145.40;78.10;;;;;;;-2.23;96.68;96866.14;104839;1322;22084;-87
2022/11/21 06:29:16;;;;;;;116.60;68.60;;;;;;;-2.22;96.97;96865.27;104918;1316;22151;-87
2022/11/21 06:31:44;;;;;;;103.00;71.80;;;;;;;-2.19;96.92;96869.79;104858;1327;22923;-88
2022/11/21 06:34:12;;;;;;;107.90;71.40;;;;;;;-2.14;97.35;96860.63;105375;1319;22148;-89
2022/11/21 06:36:40;;;;;;;77.00;68.70;;;;;;;-2.07;97.50;96865.69;104988;1320;22153;-87
2022/11/21 06:39:09;;;;;;;73.10;65.80;;;;;;;-2.00;97.33;96867.89;105353;1306;22765;-87
2022/11/21 06:41:37;;;;;;;93.80;73.30;;;;;;;-1.94;97.50;96874.00;104770;1326;22267;-87
2022/11/21 06:44:05;;;;;;;86.20;70.80;;;;;;;-1.87;97.52;96875.09;104900;1318;22081;-86
2022/11/21 06:46:32;;;;;;;102.60;72.20;;;;;;;-1.84;97.58;96875.83;104944;1320;22274;-88
2022/11/21 06:49:00;;;;;;;84.30;69.60;;;;;;;-1.82;97.68;96876.95;104898;1321;22195;-85
2022/11/21 06:51:28;;;;;;;94.60;73.70;;;;;;;-1.80;97.81;96877.24;104892;1321;22200;-88
2022/11/21 06:53:58;;;;;;;78.60;70.00;;;;;;;-1.75;97.94;96877.73;104799;1327;22130;-87
2022/11/21 06:56:28;;;;;;;86.30;74.80;;;;;;;-1.67;97.92;96872.55;104827;1327;22210;-86
2022/11/21 06:58:58;;;;;;;116.20;79.80;;;;;;;-1.59;98.02;96872.74;104857;1327;22189;-87
2022/11/21 07:01:26;;;;;;;108.60;76.00;;;;;;;-1.55;98.18;96874.19;104776;1327;22288;-84
2022/11/21 07:03:54;;;;;;;124.90;82.00;;;;;;;-1.53;98.14;96870.51;104857;1327;22249;-88
2022/11/21 07:06:22;;;;;;;93.30;76.20;;;;;;;-1.49;98.50;96868.70;104804;1327;22261;-89
2022/11/21 07:08:53;;;;;;;114.30;79.40;;;;;;;-1.46;98.73;96868.46;104870;1327;22210;-86
2022/11/21 07:11:42;;;;;;;94.50;74.80;;;;;;;-1.38;98.84;96859.63;104938;1325;22191;-88
2022/11/21 07:14:10;;;;;;;90.60;74.90;;;;;;;-1.31;98.85;96861.98;104972;1321;22197;-86
2022/11/21 07:16:38;;;;;;;85.40;72.80;;;;;;;-1.23;98.79;96859.84;105103;1320;22101;-88
2022/11/21 07:19:06;;;;;;;88.70;75.80;;;;;;;-1.17;98.95;96855.79;104968;1322;22235;-88
2022/11/21 07:21:34;;;;;;;82.10;73.50;;;;;;;-1.12;99.08;96856.35;105257;1305;181012;-87
2022/11/21 07:24:32;;;;;;;76.10;68.80;;;;;;;-1.08;99.17;96856.61;105276;1318;22091;-86
2022/11/21 07:27:01;;;;;;;72.90;65.70;;;;;;;-0.99;99.29;96853.84;104949;1326;22188;-86
2022/11/21 07:29:29;;;;;;;67.80;61.40;;;;;;;-0.88;99.57;96854.05;104890;1327;22209;-89
2022/11/21 07:31:57;;;;;;;73.80;65.10;;;;;;;-0.79;99.38;96848.27;105306;1320;22139;-86
2022/11/21 07:34:25;;;;;;;74.70;67.20;;;;;;;-0.68;99.40;96849.67;105113;1320;22175;-87
2022/11/21 07:36:53;;;;;;;72.20;65.60;;;;;;;-0.57;99.67;96845.11;104750;1322;22316;-87
2022/11/21 07:39:21;;;;;;;75.10;67.90;;;;;;;-0.49;99.68;96841.37;104995;1318;22927;-85
2022/11/21 07:41:49;;;;;;;77.40;70.10;;;;;;;-0.46;99.57;96841.44;104794;1327;22211;-90
2022/11/21 07:44:17;;;;;;;71.90;65.20;;;;;;;-0.38;99.68;96837.52;104786;1327;23011;-85
2022/11/21 07:46:45;;;;;;;77.60;70.20;;;;;;;-0.29;99.58;96834.83;104904;1327;22209;-87
2022/11/21 07:49:13;;;;;;;81.80;74.30;;;;;;;-0.24;99.59;96835.91;104871;1327;22257;-85
2022/11/21 07:51:41;;;;;;;78.10;70.80;;;;;;;-0.19;99.38;96832.83;104908;1326;22274;-86
2022/11/21 07:54:09;;;;;;;77.70;70.50;;;;;;;-0.16;99.58;96824.95;105312;1315;22236;-86
2022/11/21 07:56:37;;;;;;;70.90;64.20;;;;;;;-0.13;99.63;96819.15;105321;1320;22204;-85
2022/11/21 07:59:05;;;;;;;71.50;64.60;;;;;;;-0.08;99.80;96815.26;104977;1314;22209;-86
2022/11/21 08:01:32;;;;;;;68.70;62.20;;;;;;;-0.01;99.73;96816.62;105320;1319;23007;-88
2022/11/21 08:04:00;;;;;;;69.30;62.90;;;;;;;0.07;99.67;96814.23;104740;1327;22203;-86
2022/11/21 08:06:28;;;;;;;77.00;69.80;;;;;;;0.14;99.68;96812.40;105091;1314;22059;-88
2022/11/21 08:08:56;;;;;;;85.90;77.90;;;;;;;0.17;99.75;96808.91;105338;1318;23014;-87
2022/11/21 08:11:24;;;;;;;77.00;69.70;;;;;;;0.17;99.72;96804.21;104903;1327;22149;-86
2022/11/21 08:13:52;;;;;;;71.00;64.20;;;;;;;0.20;99.69;96803.00;104912;1322;22131;-89
2022/11/21 08:16:22;;;;;;;77.80;70.30;;;;;;;0.23;99.71;96800.73;104907;1326;22220;-89
2022/11/21 08:18:50;;;;;;;81.00;73.40;;;;;;;0.30;99.56;96802.46;104761;1327;22221;-87
2022/11/21 08:21:18;;;;;;;80.30;72.40;;;;;;;0.38;99.54;96800.15;104706;1324;22232;-87
2022/11/21 08:23:47;;;;;;;84.30;76.20;;;;;;;0.42;99.63;96800.16;104804;1313;22104;-86
2022/11/21 08:26:15;;;;;;;88.50;78.70;;;;;;;0.46;99.69;96801.71;104887;1327;22256;-85
2022/11/21 08:28:43;;;;;;;77.00;69.80;;;;;;;0.54;99.77;96800.77;104935;1327;22107;-87
2022/11/21 08:31:11;;;;;;;75.60;68.00;;;;;;;0.62;99.84;96803.77;105343;1319;22199;-89
2022/11/21 08:33:39;;;;;;;76.70;69.20;;;;;;;0.74;99.87;96800.67;105281;1320;22209;-90
2022/11/21 08:36:07;;;;;;;72.80;65.60;;;;;;;0.86;99.78;96802.08;104949;1327;22197;-87
2022/11/21 08:38:35;;;;;;;77.30;70.20;;;;;;;0.95;99.87;96805.21;105069;1324;22342;-93
2022/11/21 08:43:50;;;;;;;83.20;75.00;;;;;;;1.11;99.75;96802.42;104877;1322;22257;-90
2022/11/21 08:46:18;;;;;;;81.50;73.40;;;;;;;1.18;99.67;96796.90;104984;1326;22105;-93
2022/11/21 08:48:46;;;;;;;65.30;58.80;;;;;;;1.22;99.39;96798.55;105041;1327;22219;-89
2022/11/21 08:51:14;;;;;;;75.60;68.30;;;;;;;1.28;99.23;96797.34;105031;1322;22191;-92
2022/11/21 08:53:42;;;;;;;75.30;67.90;;;;;;;1.35;99.59;96793.14;104907;1327;22808;-90
2022/11/21 08:56:10;;;;;;;75.30;67.90;;;;;;;1.44;99.85;96792.65;105062;1326;22907;-87
2022/11/21 08:58:38;;;;;;;65.70;59.50;;;;;;;1.53;99.72;96794.77;104905;1327;22219;-90
2022/11/21 09:01:06;;;;;;;67.50;60.90;;;;;;;1.59;99.28;96794.23;104891;1327;22295;-89
2022/11/21 09:03:34;;;;;;;60.70;54.80;;;;;;;1.70;99.51;96799.68;104783;1328;22155;-91
2022/11/21 09:06:02;;;;;;;61.60;56.00;;;;;;;1.84;99.59;96806.08;105170;1320;22228;-90
2022/11/21 09:08:30;;;;;;;67.50;61.30;;;;;;;1.95;99.65;96810.52;104995;1320;22094;-91
2022/11/21 09:11:06;;;;;;;72.10;65.40;;;;;;;1.99;99.32;96809.45;104869;1327;22257;-92
2022/11/21 09:13:35;;;;;;;79.90;72.10;;;;;;;2.03;99.57;96810.92;104865;1327;22237;-92
2022/11/21 09:18:51;;;;;;;94.20;75.90;;;;;;;2.10;99.14;96808.73;105110;1320;22189;-87
2022/11/21 09:21:20;;;;;;;81.00;70.50;;;;;;;2.13;98.91;96810.41;104882;1327;22948;-88
2022/11/21 09:23:48;;;;;;;69.80;63.30;;;;;;;2.21;98.73;96809.86;104918;1327;22790;-89
2022/11/21 09:26:16;;;;;;;74.00;66.90;;;;;;;2.21;98.31;96810.92;104843;1327;23058;-90
2022/11/21 09:28:44;;;;;;;77.30;70.10;;;;;;;2.16;98.20;96815.30;104915;1327;22133;-90
2022/11/21 09:31:13;;;;;;;77.50;69.90;;;;;;;2.08;98.38;96816.33;104935;1322;22934;-87
2022/11/21 09:33:41;;;;;;;71.90;65.10;;;;;;;2.02;98.28;96815.55;104773;1327;22206;-91
2022/11/21 09:36:09;;;;;;;71.60;64.50;;;;;;;2.00;98.00;96813.42;104814;1327;22939;-86
2022/11/21 09:38:37;;;;;;;66.00;59.80;;;;;;;2.02;97.77;96815.81;104789;1327;21867;-87
2022/11/21 09:44:24;;;;;;;70.20;63.40;;;;;;;1.99;97.96;96815.35;104850;1327;22113;-90
2022/11/21 09:47:03;;;;;;;72.10;65.50;;;;;;;1.98;97.75;96810.09;105485;1320;22227;-91
2022/11/21 09:49:37;;;;;;;65.80;59.60;;;;;;;1.93;97.50;96809.62;104902;1327;22180;-90
2022/11/21 09:52:06;;;;;;;66.70;60.80;;;;;;;1.92;97.76;96805.91;104844;1327;22079;-88
2022/11/21 09:54:44;;;;;;;75.00;67.70;;;;;;;1.97;98.18;96800.48;104870;1327;22214;-88
2022/11/21 09:57:15;;;;;;;68.20;61.80;;;;;;;2.08;97.67;96799.33;105402;1315;22286;-85
2022/11/21 09:59:45;;;;;;;63.40;57.60;;;;;;;2.10;97.56;96795.34;105004;1327;22210;-90
2022/11/21 10:02:16;;;;;;;67.60;60.90;;;;;;;2.12;97.83;96794.79;105129;1314;22339;-88
2022/11/21 10:04:46;;;;;;;69.30;61.60;;;;;;;2.17;97.69;96792.81;104633;1327;22213;-84
2022/11/21 10:07:23;;;;;;;70.70;63.90;;;;;;;2.24;97.44;96791.62;104726;1327;22200;-89
2022/11/21 10:10:13;;;;;;;69.50;62.70;;;;;;;2.33;97.14;96789.61;105293;1318;22764;-85
2022/11/21 10:12:50;;;;;;;69.00;62.30;;;;;;;2.42;97.24;96786.64;105317;1319;22193;-88
2022/11/21 10:15:24;;;;;;;70.70;63.50;;;;;;;2.46;96.86;96789.92;104799;1327;22197;-87
2022/11/21 10:18:19;;;;;;;73.30;66.30;;;;;;;2.45;97.00;96791.16;104871;1327;22707;-88
2022/11/21 10:21:06;;;;;;;73.10;66.10;;;;;;;2.46;96.80;96785.89;105251;1320;22243;-88
2022/11/21 10:24:09;;;;;;;75.70;68.00;;;;;;;2.46;97.05;96781.89;104871;1327;22949;-87
2022/11/21 10:26:50;;;;;;;81.90;73.10;;;;;;;2.50;96.70;96781.56;104662;1311;22946;-89
2022/11/21 10:29:33;;;;;;;75.30;67.60;;;;;;;2.53;96.62;96778.36;104433;1333;22271;-91
2022/11/21 10:32:10;;;;;;;73.40;66.10;;;;;;;2.58;96.24;96774.55;104628;1317;22803;-89
2022/11/21 10:34:38;;;;;;;71.60;64.70;;;;;;;2.53;96.21;96772.30;104675;1320;22662;-90
2022/11/21 10:37:25;;;;;;;70.40;63.80;;;;;;;2.52;96.42;96771.77;104339;1330;22934;-91
2022/11/21 10:39:55;;;;;;;65.20;59.10;;;;;;;2.52;96.29;96774.85;104653;1326;22119;-89
2022/11/21 10:42:35;;;;;;;61.20;55.40;;;;;;;2.49;95.73;96768.90;104322;1336;22875;-88
2022/11/21 10:45:16;;;;;;;58.40;52.70;;;;;;;2.54;96.03;96768.98;104626;1326;22419;-90
2022/11/21 10:47:49;;;;;;;70.20;63.00;;;;;;;2.62;96.23;96771.45;104390;1335;22161;-90
2022/11/21 10:50:57;;;;;;;67.40;60.90;;;;;;;2.71;96.13;96769.36;104369;1333;22135;-88
2022/11/21 10:56:35;;;;;;;63.10;56.90;;;;;;;2.68;95.53;96765.77;104359;1317;22216;-87
2022/11/21 10:59:17;;;;;;;59.80;54.40;;;;;;;2.67;95.56;96771.52;104736;1326;22306;-88
2022/11/21 11:01:58;;;;;;;55.80;50.50;;;;;;;2.65;95.01;96764.67;104459;1313;22156;-86
2022/11/21 11:04:28;;;;;;;53.90;49.00;;;;;;;2.68;95.15;96760.14;105081;1309;22606;-86
2022/11/21 11:07:22;;;;;;;54.00;48.90;;;;;;;2.72;95.20;96758.70;104895;1327;22111;-87
2022/11/21 11:09:52;;;;;;;64.20;57.10;;;;;;;2.80;95.24;96763.25;105352;1319;22188;-86
2022/11/21 11:12:22;;;;;;;61.10;55.30;;;;;;;2.87;95.38;96760.27;105414;1315;22195;-87
2022/11/21 11:14:54;;;;;;;60.60;55.00;;;;;;;2.90;94.73;96756.31;104967;1327;22237;-88
2022/11/21 11:17:28;;;;;;;62.10;55.90;;;;;;;2.88;94.25;96757.61;104910;1327;22809;-88
2022/11/21 11:20:32;;;;;;;60.80;55.10;;;;;;;2.85;93.93;96754.11;104858;1327;22721;-88
2022/11/21 11:23:15;;;;;;;55.70;50.20;;;;;;;2.88;94.20;96750.74;104933;1327;22092;-86
2022/11/21 11:25:57;;;;;;;59.10;53.40;;;;;;;2.97;94.16;96746.04;104836;1327;22769;-89
2022/11/21 11:28:34;;;;;;;63.90;56.80;;;;;;;3.03;94.21;96743.13;104726;1327;22242;-88
2022/11/21 11:31:02;;;;;;;61.20;55.50;;;;;;;3.03;94.19;96741.70;104912;1326;22236;-87
2022/11/21 11:33:50;;;;;;;64.40;58.00;;;;;;;3.08;93.92;96746.70;105117;1314;23440;-86
2022/11/21 11:36:51;;;;;;;64.00;57.10;;;;;;;3.10;94.38;96746.64;104885;1327;22991;-88
2022/11/21 11:39:31;;;;;;;56.70;50.90;;;;;;;3.20;93.70;96744.74;105150;1319;22084;-88
2022/11/21 11:48:06;;;;;;;58.80;52.90;;;;;;;3.28;93.66;96747.61;104895;1327;22277;-90
2022/11/21 11:51:11;;;;;;;56.20;51.10;;;;;;;3.29;94.00;96745.52;104858;1327;22177;-90
2022/11/21 11:53:44;;;;;;;55.90;50.40;;;;;;;3.33;93.61;96744.86;104638;1326;22150;-90